Time;durP1;ratioP1;P1;durP2;ratioP2;P2;SDS_P1;SDS_P2;PMS_P1;PMS_P2;Temp;Humidity;BMP_temperature;BMP_pressure;BME280_temperature;BME280_humidity;BME280_pressure;Samples;Min_cycle;Max_cycle;Signal;HPM_P1;HPM_P2
2022/09/19 00:01:49;;;;;;;0.87;0.50;;;14.50;70.30;;;-142.21;98.38;112049.66;5056640;28;20544;-78
2022/09/19 00:04:19;;;;;;;0.40;0.40;;;14.40;70.20;;;-142.21;98.73;112049.66;5056244;28;20515;-77
2022/09/19 00:06:49;;;;;;;4.33;1.10;;;14.30;70.40;;;-142.21;99.33;112049.66;5053514;28;20919;-78
2022/09/19 00:09:22;;;;;;;1.80;0.77;;;14.30;70.90;;;-142.21;99.65;112049.66;5047627;28;20444;-78
2022/09/19 00:11:52;;;;;;;0.70;0.70;;;14.30;71.10;;;-142.21;99.43;112049.66;5071934;28;20473;-77
2022/09/19 00:14:22;;;;;;;0.83;0.80;;;14.20;71.10;;;-142.21;99.69;112049.66;5062606;28;20450;-76
2022/09/19 00:16:49;;;;;;;0.70;0.70;;;14.10;71.60;;;-142.21;99.07;112049.66;5044435;28;20485;-77
2022/09/19 00:19:19;;;;;;;0.57;0.57;;;14.10;71.60;;;-142.21;99.06;112049.66;5069811;28;20464;-78
2022/09/19 00:21:49;;;;;;;1.13;0.73;;;14.10;71.60;;;-142.21;98.55;112049.66;5067650;28;20440;-77
2022/09/19 00:27:09;;;;;;;0.53;0.53;;;13.90;71.90;;;-142.21;98.93;112049.66;5057533;28;20450;-78
2022/09/19 00:29:39;;;;;;;2.33;0.60;;;13.70;72.30;;;-142.21;99.39;112049.66;5061120;28;20450;-78
2022/09/19 00:32:11;;;;;;;0.83;0.83;;;13.70;72.60;;;-142.21;100.00;112049.66;5058255;28;21007;-79
2022/09/19 00:34:39;;;;;;;0.87;0.80;;;13.60;72.70;;;-142.21;100.00;112049.66;5070733;28;20440;-79
2022/09/19 00:37:06;;;;;;;0.77;0.60;;;13.60;72.50;;;-142.21;100.00;112049.66;5057609;28;20934;-79
2022/09/19 00:39:34;;;;;;;0.77;0.77;;;13.60;72.50;;;-142.21;100.00;112049.66;5071819;28;20448;-79
2022/09/19 00:42:01;;;;;;;1.10;0.67;;;13.60;73.00;;;-142.21;100.00;112049.66;5055559;28;20531;-79
2022/09/19 00:44:58;;;;;;;0.60;0.60;;;13.60;73.20;;;-142.21;100.00;112049.66;5015234;28;20436;-79
2022/09/19 00:47:35;;;;;;;1.63;0.50;;;13.60;73.60;;;-142.21;100.00;112049.66;5066059;28;20447;-80
2022/09/19 00:50:08;;;;;;;1.00;0.70;;;13.60;73.30;;;-142.21;100.00;112049.66;5053695;28;20440;-78
2022/09/19 00:52:44;;;;;;;0.50;0.50;;;13.60;72.90;;;-142.21;100.00;112049.66;5029614;28;20457;-78
2022/09/19 00:55:11;;;;;;;1.07;0.77;;;13.60;72.90;;;-142.21;100.00;112049.66;5050873;28;20467;-79
2022/09/19 00:58:01;;;;;;;0.90;0.90;;;13.60;72.80;;;-142.21;100.00;112049.66;5069984;28;20490;-78
2022/09/19 01:00:33;;;;;;;0.70;0.70;;;13.60;73.00;;;-142.21;100.00;112049.66;5072406;28;20439;-79
2022/09/19 01:03:02;;;;;;;1.20;0.70;;;13.50;73.10;;;-142.21;100.00;112049.66;5049244;28;20459;-79
2022/09/19 01:05:48;;;;;;;1.00;0.90;;;13.50;73.30;;;-142.21;100.00;112049.66;5067191;28;21023;-78
2022/09/19 01:09:03;;;;;;;0.67;0.67;;;13.40;73.50;;;-142.21;100.00;112049.66;5039551;28;20845;-78
2022/09/19 01:11:56;;;;;;;0.80;0.80;;;13.40;73.90;;;-142.21;100.00;112049.66;5035535;28;20530;-78
2022/09/19 01:14:41;;;;;;;0.70;0.70;;;13.40;74.20;;;-142.21;100.00;112049.66;5053656;28;20502;-78
2022/09/19 01:17:21;;;;;;;0.90;0.90;;;13.40;74.20;;;-142.21;100.00;112049.66;5055590;28;20476;-79
2022/09/19 01:20:32;;;;;;;1.00;0.67;;;13.40;74.20;;;-142.21;100.00;112049.66;5052124;28;21034;-79
2022/09/19 01:23:24;;;;;;;1.07;0.97;;;13.40;74.50;;;-142.21;100.00;112049.66;5049669;28;20955;-77
2022/09/19 01:26:03;;;;;;;2.03;0.80;;;13.40;74.20;;;-142.21;100.00;112049.66;5062774;28;20524;-79
2022/09/19 01:28:37;;;;;;;1.83;1.10;;;13.50;74.30;;;-142.21;100.00;112049.66;5031595;28;20454;-79
2022/09/19 01:31:21;;;;;;;1.10;1.00;;;13.50;73.80;;;-142.21;100.00;112049.66;5071597;28;20439;-79
2022/09/19 01:34:01;;;;;;;0.90;0.90;;;13.50;74.40;;;-142.21;100.00;112049.66;5068167;28;20849;-79
2022/09/19 01:36:36;;;;;;;1.60;0.73;;;13.50;73.40;;;-142.21;100.00;112049.66;5064584;28;20479;-79
2022/09/19 01:39:09;;;;;;;1.03;0.93;;;13.60;73.50;;;-142.21;100.00;112049.66;5036012;28;20490;-78
2022/09/19 01:41:36;;;;;;;1.00;0.87;;;13.50;73.30;;;-142.21;100.00;112049.66;5057546;28;20439;-79
2022/09/19 01:44:16;;;;;;;1.10;0.97;;;13.50;73.20;;;-142.21;100.00;112049.66;5059702;28;20461;-78
2022/09/19 01:46:53;;;;;;;1.07;0.87;;;13.40;73.40;;;-142.21;100.00;112049.66;5060702;28;20438;-78
2022/09/19 01:49:43;;;;;;;1.57;1.13;;;13.30;74.10;;;-142.21;100.00;112049.66;5059941;28;20439;-78
2022/09/19 01:52:27;;;;;;;1.60;0.70;;;13.30;73.40;;;-142.21;100.00;112049.66;5048654;28;20454;-79
2022/09/19 01:55:10;;;;;;;1.87;0.90;;;13.30;74.40;;;-142.21;100.00;112049.66;5048730;28;20444;-78
2022/09/19 01:57:53;;;;;;;1.03;0.73;;;13.20;73.70;;;-142.21;100.00;112049.66;5056783;28;20522;-79
2022/09/19 02:00:24;;;;;;;1.63;0.80;;;13.20;73.80;;;-142.21;100.00;112049.66;5036021;28;20420;-78
2022/09/19 02:03:11;;;;;;;1.00;0.90;;;13.10;73.90;;;-142.21;100.00;112049.66;5070300;28;20923;-79
2022/09/19 02:05:52;;;;;;;0.80;0.80;;;13.10;74.50;;;-142.21;100.00;112049.66;5036319;28;20561;-79
2022/09/19 02:08:29;;;;;;;0.70;0.70;;;13.00;74.70;;;-142.21;100.00;112049.66;5062881;28;20447;-80
2022/09/19 02:11:04;;;;;;;0.80;0.80;;;13.00;75.40;;;-142.21;100.00;112049.66;5063825;28;20538;-79
2022/09/19 02:13:34;;;;;;;0.70;0.70;;;12.90;75.10;;;-142.21;100.00;112049.66;5046234;28;20916;-80
2022/09/19 02:16:12;;;;;;;1.17;1.07;;;13.00;74.80;;;-142.21;100.00;112049.66;5051674;28;20468;-80
2022/09/19 02:18:49;;;;;;;3.40;0.73;;;12.90;75.00;;;-142.21;100.00;112049.66;5070249;28;20898;-80
2022/09/19 02:21:25;;;;;;;0.63;0.63;;;12.90;75.20;;;-142.21;100.00;112049.66;5069309;28;20440;-80
2022/09/19 02:23:59;;;;;;;0.60;0.60;;;12.90;74.90;;;-142.21;100.00;112049.66;5062558;28;20483;-80
2022/09/19 02:26:27;;;;;;;1.87;0.77;;;13.00;74.80;;;-142.21;100.00;112049.66;5055342;28;20455;-78
2022/09/19 02:28:57;;;;;;;1.50;0.80;;;13.00;74.70;;;-142.21;100.00;112049.66;5015670;28;20448;-79
2022/09/19 02:31:27;;;;;;;0.70;0.70;;;13.10;75.30;;;-142.21;100.00;112049.66;5058528;28;20534;-79
2022/09/19 02:33:59;;;;;;;0.63;0.60;;;13.00;74.40;;;-142.21;100.00;112049.66;5070980;28;20538;-79
2022/09/19 02:36:35;;;;;;;0.60;0.60;;;13.10;74.50;;;-142.21;100.00;112049.66;5071313;28;20476;-79
2022/09/19 02:39:12;;;;;;;0.90;0.80;;;13.00;74.40;;;-142.21;100.00;112049.66;4996921;28;20456;-79
2022/09/19 02:41:52;;;;;;;0.80;0.80;;;13.00;74.60;;;-142.21;100.00;112049.66;5062695;28;20432;-78
2022/09/19 02:44:30;;;;;;;1.53;0.90;;;12.90;75.30;;;-142.21;100.00;112049.66;5051888;28;20436;-79
2022/09/19 02:47:10;;;;;;;1.07;0.77;;;12.80;75.40;;;-142.21;100.00;112049.66;5036246;28;20799;-79
2022/09/19 02:49:48;;;;;;;2.17;0.90;;;12.70;75.90;;;-142.21;100.00;112049.66;5061533;28;20439;-80
2022/09/19 02:52:22;;;;;;;1.67;0.87;;;12.70;75.90;;;-142.21;100.00;112049.66;5050268;28;20431;-80
2022/09/19 02:54:56;;;;;;;1.30;0.83;;;12.70;76.00;;;-142.21;100.00;112049.66;5034696;28;20816;-79
2022/09/19 02:57:29;;;;;;;2.17;1.10;;;12.70;76.00;;;-142.21;100.00;112049.66;5058923;28;20586;-79
2022/09/19 03:00:00;;;;;;;1.10;0.73;;;12.60;76.10;;;-142.21;100.00;112049.66;5058095;28;20456;-80
2022/09/19 03:02:35;;;;;;;2.23;1.13;;;12.60;76.60;;;-142.21;100.00;112049.66;5069642;28;20439;-80
2022/09/19 03:05:09;;;;;;;1.80;0.93;;;12.50;76.80;;;-142.21;100.00;112049.66;5055414;28;20782;-80
2022/09/19 03:07:43;;;;;;;1.33;1.00;;;12.60;77.00;;;-142.21;100.00;112049.66;5038943;28;20424;-78
2022/09/19 03:10:14;;;;;;;1.10;1.00;;;12.60;76.60;;;-142.21;100.00;112049.66;5070512;28;20435;-79
2022/09/19 03:12:50;;;;;;;1.83;0.87;;;12.60;76.90;;;-142.21;100.00;112049.66;5033704;28;20438;-78
2022/09/19 03:15:20;;;;;;;1.20;0.97;;;12.80;76.60;;;-142.21;100.00;112049.66;5035526;28;20429;-79
2022/09/19 03:17:52;;;;;;;1.00;0.73;;;12.80;76.20;;;-142.21;100.00;112049.66;5068771;28;20479;-79
2022/09/19 03:20:23;;;;;;;2.20;1.07;;;12.90;75.60;;;-142.21;100.00;112049.66;5072810;28;20936;-78
2022/09/19 03:22:53;;;;;;;1.20;0.63;;;12.90;75.50;;;-142.21;100.00;112049.66;5058233;28;20431;-79
2022/09/19 03:25:21;;;;;;;1.27;0.90;;;12.90;75.60;;;-142.21;100.00;112049.66;5064404;28;20505;-79
2022/09/19 03:27:49;;;;;;;2.03;0.83;;;12.90;75.50;;;-142.21;100.00;112049.66;5068478;28;20455;-79
2022/09/19 03:30:16;;;;;;;2.00;1.10;;;12.90;76.30;;;-142.21;100.00;112049.66;5057145;28;20811;-79
2022/09/19 03:32:43;;;;;;;1.50;0.87;;;12.90;76.00;;;-142.21;100.00;112049.66;5067591;28;20527;-79
2022/09/19 03:35:14;;;;;;;3.17;1.00;;;12.90;76.00;;;-142.21;100.00;112049.66;5054116;28;20455;-79
2022/09/19 03:37:41;;;;;;;0.90;0.90;;;12.90;76.10;;;-142.21;100.00;112049.66;5073158;28;20504;-79
2022/09/19 03:40:10;;;;;;;1.60;0.80;;;13.00;76.00;;;-142.21;100.00;112049.66;5057910;28;20451;-79
2022/09/19 03:42:38;;;;;;;1.13;0.80;;;13.00;76.30;;;-142.21;100.00;112049.66;5060805;28;20451;-78
2022/09/19 03:45:07;;;;;;;0.80;0.80;;;13.00;76.30;;;-142.21;100.00;112049.66;5073315;28;20451;-78
2022/09/19 03:47:34;;;;;;;0.87;0.77;;;13.00;76.10;;;-142.21;100.00;112049.66;5075245;28;20445;-79
2022/09/19 03:50:01;;;;;;;0.90;0.90;;;13.00;76.30;;;-142.21;100.00;112049.66;5073891;28;20451;-78
2022/09/19 03:52:33;;;;;;;1.07;0.90;;;13.00;76.20;;;-142.21;100.00;112049.66;5059734;28;20448;-80
2022/09/19 03:55:00;;;;;;;1.33;1.10;;;13.00;76.20;;;-142.21;100.00;112049.66;5066723;28;20809;-79
2022/09/19 03:57:27;;;;;;;1.40;0.90;;;13.00;76.40;;;-142.21;100.00;112049.66;5054214;28;20503;-79
2022/09/19 03:59:54;;;;;;;3.87;1.00;;;13.00;76.30;;;-142.21;100.00;112049.66;5054090;28;20452;-79
2022/09/19 04:02:24;;;;;;;1.53;1.20;;;13.00;76.20;;;-142.21;100.00;112049.66;5054493;28;20440;-79
2022/09/19 04:04:53;;;;;;;1.23;0.90;;;13.00;76.30;;;-142.21;100.00;112049.66;5054264;28;20440;-79
2022/09/19 04:07:21;;;;;;;3.83;1.20;;;12.90;76.60;;;-142.21;100.00;112049.66;5054768;28;20444;-79
2022/09/19 04:09:49;;;;;;;1.63;1.20;;;12.80;76.70;;;-142.21;100.00;112049.66;5054557;28;20476;-80
2022/09/19 04:12:17;;;;;;;2.23;1.27;;;12.80;76.80;;;-142.21;100.00;112049.66;5061413;28;20447;-79
2022/09/19 04:14:45;;;;;;;3.00;1.10;;;12.80;77.00;;;-142.21;100.00;112049.66;5056550;28;20448;-80
2022/09/19 04:17:15;;;;;;;0.90;0.90;;;12.80;76.90;;;-142.21;100.00;112049.66;5062691;28;20569;-80
2022/09/19 04:19:43;;;;;;;3.80;1.20;;;12.80;76.90;;;-142.21;100.00;112049.66;5072359;28;20467;-80
2022/09/19 04:22:10;;;;;;;4.67;1.20;;;12.80;76.80;;;-142.21;100.00;112049.66;5065014;28;20952;-80
2022/09/19 04:24:41;;;;;;;1.30;1.00;;;12.90;76.70;;;-142.21;100.00;112049.66;5072299;28;20443;-79
2022/09/19 04:27:13;;;;;;;2.20;1.40;;;12.90;77.00;;;-142.21;100.00;112049.66;5057712;28;20484;-76
2022/09/19 04:29:40;;;;;;;1.13;1.13;;;12.90;76.70;;;-142.21;100.00;112049.66;5056749;28;20445;-78
2022/09/19 04:32:08;;;;;;;1.33;1.23;;;12.90;76.90;;;-142.21;100.00;112049.66;5055884;28;20513;-79
2022/09/19 04:34:35;;;;;;;2.83;1.20;;;12.90;77.00;;;-142.21;100.00;112049.66;5053950;28;20479;-79
2022/09/19 04:37:06;;;;;;;1.53;1.23;;;13.00;77.20;;;-142.21;100.00;112049.66;5054836;28;20480;-80
2022/09/19 04:39:33;;;;;;;3.40;1.00;;;13.00;76.90;;;-142.21;100.00;112049.66;5055611;28;20449;-79
2022/09/19 04:42:01;;;;;;;2.87;1.10;;;13.00;77.00;;;-142.21;100.00;112049.66;5056752;28;20440;-79
2022/09/19 04:44:30;;;;;;;2.43;1.10;;;13.00;77.30;;;-142.21;100.00;112049.66;5054586;28;20857;-80
2022/09/19 04:46:58;;;;;;;2.43;1.73;;;13.00;77.30;;;-142.21;100.00;112049.66;5053210;28;20447;-80
2022/09/19 04:49:26;;;;;;;1.77;1.60;;;13.00;77.20;;;-142.21;100.00;112049.66;5058363;28;20443;-78
2022/09/19 04:51:56;;;;;;;1.67;1.57;;;13.10;77.30;;;-142.21;100.00;112049.66;5072242;28;20443;-78
2022/09/19 04:54:25;;;;;;;2.80;1.37;;;13.10;77.10;;;-142.21;100.00;112049.66;5053705;28;20825;-78
2022/09/19 04:56:53;;;;;;;1.40;1.30;;;13.10;77.50;;;-142.21;100.00;112049.66;5053627;28;20492;-79
2022/09/19 04:59:20;;;;;;;1.53;1.40;;;13.10;77.30;;;-142.21;100.00;112049.66;5053902;28;20429;-79
2022/09/19 05:01:49;;;;;;;2.10;1.40;;;13.10;77.40;;;-142.21;100.00;112049.66;5062005;28;20485;-79
2022/09/19 05:04:18;;;;;;;2.93;1.60;;;13.10;78.30;;;-142.21;100.00;112049.66;5072103;28;20497;-79
2022/09/19 05:06:45;;;;;;;2.53;1.63;;;13.10;77.70;;;-142.21;100.00;112049.66;5066493;28;20820;-80
2022/09/19 05:09:12;;;;;;;1.90;1.40;;;13.10;77.80;;;-142.21;100.00;112049.66;5050449;28;20451;-79
2022/09/19 05:11:43;;;;;;;2.83;1.60;;;13.10;77.70;;;-142.21;100.00;112049.66;5065058;28;20448;-79
2022/09/19 05:14:10;;;;;;;2.40;1.53;;;13.10;77.70;;;-142.21;100.00;112049.66;5053819;28;20468;-79
2022/09/19 05:16:38;;;;;;;2.77;1.57;;;13.20;77.40;;;-142.21;100.00;112049.66;5068125;28;20912;-79
2022/09/19 05:19:06;;;;;;;2.90;1.40;;;13.20;77.50;;;-142.21;100.00;112049.66;5052260;28;20469;-79
2022/09/19 05:21:34;;;;;;;4.30;1.60;;;13.20;78.20;;;-142.21;100.00;112049.66;5054085;28;20521;-80
2022/09/19 05:24:03;;;;;;;1.43;1.20;;;13.20;77.30;;;-142.21;100.00;112049.66;5052651;28;20453;-80
2022/09/19 05:26:30;;;;;;;4.00;1.60;;;13.20;77.30;;;-142.21;100.00;112049.66;5056743;28;20459;-79
2022/09/19 05:28:57;;;;;;;1.80;1.50;;;13.10;77.50;;;-142.21;100.00;112049.66;5052262;28;20467;-80
2022/09/19 05:31:24;;;;;;;6.77;1.60;;;12.90;77.90;;;-142.21;100.00;112049.66;5053529;28;20449;-78
2022/09/19 05:33:52;;;;;;;4.40;1.47;;;13.00;78.20;;;-142.21;100.00;112049.66;5055620;28;20460;-80
2022/09/19 05:36:20;;;;;;;3.53;1.47;;;13.00;78.40;;;-142.21;100.00;112049.66;5058326;28;20534;-77
2022/09/19 05:38:48;;;;;;;2.23;1.40;;;13.10;78.50;;;-142.21;100.00;112049.66;5061927;28;20451;-77
2022/09/19 05:41:16;;;;;;;1.73;1.60;;;13.10;78.20;;;-142.21;100.00;112049.66;5070284;28;20474;-76
2022/09/19 05:43:44;;;;;;;2.50;1.53;;;13.00;79.00;;;-142.21;100.00;112049.66;5068238;28;20876;-78
2022/09/19 05:46:11;;;;;;;3.77;1.97;;;13.00;78.60;;;-142.21;100.00;112049.66;5060117;28;20462;-77
2022/09/19 05:48:38;;;;;;;1.73;1.23;;;13.00;78.80;;;-142.21;100.00;112049.66;5063384;28;20444;-76
2022/09/19 05:51:06;;;;;;;2.03;1.50;;;12.90;78.80;;;-142.21;100.00;112049.66;5052110;28;20444;-78
2022/09/19 05:53:52;;;;;;;2.93;1.40;;;13.00;78.90;;;-142.21;100.00;112049.66;5066594;28;20543;-78
2022/09/19 05:56:19;;;;;;;2.20;1.40;;;13.00;78.80;;;-142.21;100.00;112049.66;5070588;28;20451;-79
2022/09/19 05:58:49;;;;;;;3.80;1.87;;;13.00;78.70;;;-142.21;100.00;112049.66;5070813;28;20485;-78
2022/09/19 06:01:17;;;;;;;2.83;1.50;;;13.00;79.10;;;-142.21;100.00;112049.66;5071954;28;20448;-78
2022/09/19 06:03:44;;;;;;;2.53;1.50;;;13.00;79.20;;;-142.21;100.00;112049.66;5056505;28;20444;-77
2022/09/19 06:06:18;;;;;;;2.87;1.80;;;12.90;79.30;;;-142.21;100.00;112049.66;5064529;28;20447;-76
2022/09/19 06:08:55;;;;;;;3.07;1.53;;;12.90;79.70;;;-142.21;100.00;112049.66;5071775;28;20447;-74
2022/09/19 06:11:23;;;;;;;5.20;1.70;;;12.90;79.80;;;-142.21;100.00;112049.66;5072169;28;20485;-75
2022/09/19 06:16:35;;;;;;;3.83;1.70;;;13.00;79.60;;;-142.21;100.00;112049.66;5065098;28;20566;-74
2022/09/19 06:19:04;;;;;;;5.17;1.40;;;13.10;79.60;;;-142.21;100.00;112049.66;5070389;28;20502;-72
2022/09/19 06:21:32;;;;;;;4.83;1.67;;;13.10;79.70;;;-142.21;100.00;112049.66;5059388;28;20527;-74
2022/09/19 06:24:02;;;;;;;3.13;1.70;;;13.00;79.90;;;-142.21;100.00;112049.66;5055186;28;20497;-74
2022/09/19 06:26:29;;;;;;;4.23;1.83;;;13.00;80.40;;;-142.21;100.00;112049.66;5016182;28;20444;-74
2022/09/19 06:28:56;;;;;;;3.37;1.73;;;13.00;80.40;;;-142.21;100.00;112049.66;5050923;28;20440;-74
2022/09/19 06:31:24;;;;;;;1.30;1.20;;;13.00;80.50;;;-142.21;100.00;112049.66;5045546;28;20527;-73
2022/09/19 06:33:51;;;;;;;4.03;1.53;;;13.00;81.00;;;-142.21;100.00;112049.66;5059450;28;20520;-73
2022/09/19 06:36:18;;;;;;;2.47;1.60;;;13.00;80.70;;;-142.21;100.00;112049.66;5056120;28;20995;-73
2022/09/19 06:38:45;;;;;;;1.50;1.40;;;13.10;80.50;;;-142.21;100.00;112049.66;5069621;28;20570;-74
2022/09/19 06:41:15;;;;;;;3.50;1.90;;;13.10;80.50;;;-142.21;100.00;112049.66;5057783;28;20483;-73
2022/09/19 06:43:42;;;;;;;2.20;1.50;;;13.20;80.40;;;-142.21;100.00;112049.66;5011650;28;20501;-73
2022/09/19 06:46:09;;;;;;;2.10;1.50;;;13.10;80.70;;;-142.21;100.00;112049.66;5074416;28;20539;-72
2022/09/19 06:48:37;;;;;;;3.93;1.60;;;13.10;80.20;;;-142.21;100.00;112049.66;5078475;28;20439;-73
2022/09/19 06:51:04;;;;;;;6.27;2.10;;;13.20;80.10;;;-142.21;100.00;112049.66;5059087;28;20475;-73
2022/09/19 06:53:32;;;;;;;5.80;1.90;;;13.10;80.50;;;-142.21;100.00;112049.66;5059448;28;20815;-72
2022/09/19 06:55:59;;;;;;;5.90;1.63;;;13.10;80.70;;;-142.21;100.00;112049.66;5062297;28;20447;-73
2022/09/19 06:58:27;;;;;;;4.47;1.80;;;13.20;80.80;;;-142.21;100.00;112049.66;5069035;28;20919;-72
2022/09/19 07:00:54;;;;;;;3.83;1.70;;;13.30;80.50;;;-142.21;100.00;112049.66;5059367;28;20502;-72
2022/09/19 07:03:21;;;;;;;2.63;1.87;;;13.40;81.30;;;-142.21;100.00;112049.66;5070234;28;20482;-73
2022/09/19 07:05:51;;;;;;;3.17;1.77;;;13.40;80.00;;;-142.21;100.00;112049.66;5076738;28;20841;-73
2022/09/19 07:08:18;;;;;;;2.93;1.70;;;13.50;79.90;;;-142.21;100.00;112049.66;5077559;28;20931;-73
2022/09/19 07:10:45;;;;;;;3.43;1.97;;;13.60;80.10;;;-142.21;100.00;112049.66;5064957;28;20538;-73
2022/09/19 07:13:16;;;;;;;3.27;1.53;;;13.70;79.40;;;-142.21;100.00;112049.66;5047258;28;20528;-73
2022/09/19 07:15:45;;;;;;;2.80;1.80;;;13.90;79.20;;;-142.21;100.00;112049.66;5051553;28;20535;-74
2022/09/19 07:18:13;;;;;;;3.37;1.40;;;13.90;78.80;;;-142.21;100.00;112049.66;5056988;28;20564;-74
2022/09/19 07:20:42;;;;;;;2.87;1.63;;;14.00;78.60;;;-142.21;100.00;112049.66;5068919;28;20451;-73
2022/09/19 07:23:14;;;;;;;2.87;1.43;;;14.00;78.00;;;-142.21;100.00;112049.66;5077136;28;20443;-73
2022/09/19 07:26:00;;;;;;;2.80;1.60;;;14.10;78.80;;;-142.21;100.00;112049.66;5076243;28;20534;-73
2022/09/19 07:28:28;;;;;;;4.53;1.70;;;14.00;77.60;;;-142.21;100.00;112049.66;5076198;28;20427;-72
2022/09/19 07:31:01;;;;;;;1.77;1.37;;;14.00;77.90;;;-142.21;100.00;112049.66;5065364;28;20530;-73
2022/09/19 07:33:30;;;;;;;4.60;1.93;;;14.10;78.30;;;-142.21;100.00;112049.66;5076562;28;20518;-73
2022/09/19 07:35:58;;;;;;;3.97;2.00;;;14.20;78.20;;;-142.21;100.00;112049.66;5066858;28;20512;-72
2022/09/19 07:38:28;;;;;;;4.30;2.07;;;14.20;76.80;;;-142.21;100.00;112049.66;5077458;28;20513;-73
2022/09/19 07:40:56;;;;;;;2.43;1.10;;;14.20;76.90;;;-142.21;100.00;112049.66;5057218;28;20626;-73
2022/09/19 07:43:24;;;;;;;4.43;2.33;;;14.30;77.00;;;-142.21;100.00;112049.66;5057239;28;20513;-73
2022/09/19 07:45:52;;;;;;;3.80;1.50;;;14.40;76.20;;;-142.21;100.00;112049.66;5075944;28;20447;-73
2022/09/19 07:48:21;;;;;;;3.27;1.70;;;14.50;76.60;;;-142.21;99.37;112049.66;5077289;28;20874;-73
2022/09/19 07:50:49;;;;;;;3.37;1.63;;;14.50;75.10;;;-142.21;98.94;112049.66;5055726;28;20448;-73
2022/09/19 07:53:21;;;;;;;2.23;1.60;;;14.50;75.10;;;-142.21;100.00;112049.66;5054067;28;20448;-74
2022/09/19 07:55:51;;;;;;;4.47;1.80;;;14.50;75.50;;;-142.21;97.84;112049.66;5055264;28;20441;-73
2022/09/19 07:58:20;;;;;;;5.03;1.97;;;14.50;74.20;;;-142.21;98.48;112049.66;5069472;28;20581;-73
2022/09/19 08:00:48;;;;;;;2.17;1.70;;;14.50;75.00;;;-142.21;99.10;112049.66;5070095;28;20470;-73
2022/09/19 08:03:17;;;;;;;3.17;1.77;;;14.50;75.40;;;-142.21;97.64;112049.66;5073563;28;20460;-73
2022/09/19 08:05:48;;;;;;;2.57;1.53;;;14.60;74.80;;;-142.21;97.37;112049.66;5072334;28;20447;-73
2022/09/19 08:08:18;;;;;;;4.50;1.47;;;14.70;74.30;;;-142.21;96.42;112049.66;5069827;28;20435;-74
2022/09/19 08:10:46;;;;;;;3.07;1.40;;;14.70;74.70;;;-142.21;97.01;112049.66;5053737;28;20472;-73
2022/09/19 08:13:19;;;;;;;3.23;1.80;;;14.80;74.30;;;-142.21;96.84;112049.66;5053323;28;20478;-73
2022/09/19 08:15:48;;;;;;;3.83;1.80;;;14.90;73.90;;;-142.21;97.51;112049.66;5073721;28;20431;-74
2022/09/19 08:18:18;;;;;;;7.10;2.23;;;14.70;74.10;;;-142.21;97.09;112049.66;5055290;28;20537;-75
2022/09/19 08:20:48;;;;;;;2.73;1.67;;;14.90;74.40;;;-142.21;96.90;112049.66;5057072;28;20444;-74
2022/09/19 08:23:17;;;;;;;3.90;1.43;;;15.00;74.20;;;-142.21;94.07;112049.66;5070599;28;20825;-74
2022/09/19 08:25:47;;;;;;;3.30;1.83;;;15.00;72.30;;;-142.21;94.84;112049.66;5073690;28;20479;-75
2022/09/19 08:28:16;;;;;;;5.83;1.60;;;15.10;72.70;;;-142.21;95.36;112049.66;5050013;28;20807;-75
2022/09/19 08:30:45;;;;;;;6.20;1.87;;;15.00;72.90;;;-142.21;95.03;112049.66;5053484;28;20457;-74
2022/09/19 08:33:12;;;;;;;4.60;1.37;;;14.90;73.00;;;-142.21;94.94;112049.66;5060502;28;20444;-74
2022/09/19 08:35:41;;;;;;;2.27;1.50;;;14.90;72.90;;;-142.21;95.52;112049.66;5053985;28;20455;-74
2022/09/19 08:38:13;;;;;;;4.47;1.70;;;14.90;73.50;;;-142.21;94.68;112049.66;5064995;28;20501;-74
2022/09/19 08:41:21;;;;;;;3.97;1.70;;;15.00;72.90;;;-142.21;94.83;112049.66;5073586;28;20442;-74
2022/09/19 08:44:00;;;;;;;3.90;2.17;;;15.10;73.20;;;-142.21;93.60;112049.66;5072274;28;20800;-74
2022/09/19 08:46:37;;;;;;;3.37;1.87;;;15.20;72.20;;;-142.21;93.47;112049.66;5060877;28;20493;-74
2022/09/19 08:49:12;;;;;;;3.80;1.47;;;15.20;71.70;;;-142.21;90.94;112049.66;5071706;28;20990;-74
2022/09/19 08:51:55;;;;;;;4.00;1.63;;;15.30;71.20;;;-142.21;90.10;112049.66;5073648;28;20470;-74
2022/09/19 08:54:32;;;;;;;4.37;1.43;;;15.40;71.10;;;-142.21;91.00;112049.66;5071910;28;20465;-74
2022/09/19 08:57:04;;;;;;;3.77;1.50;;;15.50;70.80;;;-142.21;90.42;112049.66;5071740;28;20863;-74
2022/09/19 08:59:39;;;;;;;4.93;1.63;;;15.60;70.10;;;-142.21;90.86;112049.66;5052737;28;20525;-74
2022/09/19 09:02:20;;;;;;;4.27;1.70;;;15.60;70.50;;;-142.21;91.07;112049.66;5051883;28;20437;-74
2022/09/19 09:04:48;;;;;;;3.27;1.60;;;15.80;70.50;;;-142.21;88.92;112049.66;5073437;28;20427;-75
2022/09/19 09:07:29;;;;;;;4.50;1.20;;;15.60;68.80;;;-142.21;88.61;112049.66;5067603;28;20535;-75
2022/09/19 09:10:22;;;;;;;4.17;1.60;;;15.60;69.10;;;-142.21;89.75;112049.66;5065574;28;20501;-75
2022/09/19 09:13:07;;;;;;;2.20;1.57;;;15.60;69.80;;;-142.21;89.30;112049.66;5039643;28;20940;-75
2022/09/19 09:15:58;;;;;;;5.77;1.80;;;15.70;69.70;;;-142.21;89.30;112049.66;5052868;28;20455;-75
2022/09/19 09:18:58;;;;;;;4.60;1.50;;;15.80;69.40;;;-142.21;88.09;112049.66;5053050;28;20484;-74
2022/09/19 09:21:40;;;;;;;3.30;1.57;;;15.60;68.50;;;-142.21;90.11;112049.66;5063889;28;20474;-75
2022/09/19 09:24:18;;;;;;;3.67;1.63;;;15.70;69.90;;;-142.21;90.26;112049.66;5032006;28;20952;-75
2022/09/19 09:26:53;;;;;;;2.07;1.53;;;15.80;69.80;;;-142.21;89.71;112049.66;5048536;28;20546;-74
2022/09/19 09:29:28;;;;;;;4.17;1.70;;;15.80;69.10;;;-142.21;90.23;112049.66;5051859;28;20436;-75
2022/09/19 09:32:05;;;;;;;4.50;1.70;;;15.90;69.80;;;-142.21;90.86;112049.66;5067702;28;20457;-75
2022/09/19 09:34:43;;;;;;;5.87;2.10;;;16.10;70.00;;;-142.21;89.50;112049.66;5072796;28;20476;-76
2022/09/19 09:37:21;;;;;;;3.63;1.77;;;16.20;69.20;;;-142.21;89.18;112049.66;5069924;28;20442;-74
2022/09/19 09:40:00;;;;;;;4.53;1.80;;;16.20;68.60;;;-142.21;89.34;112049.66;5072360;28;20996;-75
2022/09/19 09:42:37;;;;;;;1.83;1.50;;;16.30;68.80;;;-142.21;89.51;112049.66;5051998;28;20444;-74
2022/09/19 09:45:20;;;;;;;3.43;1.40;;;16.30;68.70;;;-142.21;88.50;112049.66;5052169;28;20471;-75
2022/09/19 09:48:10;;;;;;;5.13;1.93;;;16.40;68.00;;;-142.21;88.07;112049.66;5032186;28;20483;-74
2022/09/19 09:51:08;;;;;;;3.27;1.70;;;16.10;67.80;;;-142.21;90.01;112049.66;5039533;28;20867;-75
2022/09/19 09:54:01;;;;;;;3.97;1.70;;;16.10;69.80;;;-142.21;89.87;112049.66;5072366;28;20519;-75
2022/09/19 09:56:38;;;;;;;6.73;1.87;;;16.10;69.80;;;-142.21;93.45;112049.66;5069342;28;20455;-75
2022/09/19 10:05:25;;;;;;;2.97;1.63;;;16.30;70.50;;;-142.21;92.77;112049.66;5071405;28;20460;-77
2022/09/19 10:08:06;;;;;;;4.00;1.60;;;16.60;71.30;;;-142.21;91.25;112049.66;5033217;28;20425;-76
2022/09/19 10:10:38;;;;;;;3.07;1.63;;;16.80;70.40;;;-142.21;87.98;112049.66;5037703;28;20534;-76
2022/09/19 10:13:16;;;;;;;4.17;1.57;;;17.00;68.70;;;-142.21;83.76;112049.66;5063236;28;20427;-76
2022/09/19 10:15:49;;;;;;;7.13;1.90;;;17.10;66.10;;;-142.21;80.95;112049.66;5050602;28;20441;-77
2022/09/19 10:18:18;;;;;;;4.23;1.77;;;17.20;65.20;;;-142.21;81.38;112049.66;5035464;28;20574;-76
2022/09/19 10:20:51;;;;;;;4.00;1.70;;;17.00;65.20;;;-142.21;83.75;112049.66;5051647;28;20483;-76
2022/09/19 10:23:37;;;;;;;3.47;1.70;;;17.20;66.20;;;-142.21;82.72;112049.66;5051568;28;20439;-76
2022/09/19 10:26:14;;;;;;;3.77;1.70;;;17.30;65.50;;;-142.21;82.00;112049.66;5050997;28;20541;-76
2022/09/19 10:28:51;;;;;;;4.90;1.57;;;17.30;65.10;;;-142.21;81.11;112049.66;5069869;28;20795;-74
2022/09/19 10:31:32;;;;;;;3.23;1.63;;;17.50;64.70;;;-142.21;79.93;112049.66;5051116;28;20435;-76